createdAt,value
2023-03-18T00:01:29.759Z,11.19
2023-03-18T00:03:58.340Z,11.26
2023-03-18T00:06:27.238Z,11.22
2023-03-18T00:08:55.863Z,11.48
2023-03-18T00:11:27.076Z,11.38
2023-03-18T00:13:56.407Z,11.34
2023-03-18T00:16:24.624Z,11.27
2023-03-18T00:18:54.721Z,11.29
2023-03-18T00:21:23.562Z,11.27
2023-03-18T00:23:57.041Z,11.40
2023-03-18T00:26:26.126Z,11.29
2023-03-18T00:28:58.026Z,11.26
2023-03-18T00:31:27.912Z,11.33
2023-03-18T00:33:57.949Z,11.33
2023-03-18T00:36:26.795Z,11.40
2023-03-18T00:38:58.093Z,11.27
2023-03-18T00:41:28.240Z,11.34
2023-03-18T00:43:57.049Z,11.36
2023-03-18T00:46:27.127Z,11.42
2023-03-18T00:49:00.431Z,11.28
2023-03-18T00:51:30.462Z,11.15
2023-03-18T00:54:01.968Z,11.16
2023-03-18T00:56:33.883Z,11.26
2023-03-18T00:59:02.400Z,11.14
2023-03-18T01:01:31.406Z,11.30
2023-03-18T01:04:02.089Z,11.31
2023-03-18T01:06:34.035Z,11.37
2023-03-18T01:09:03.112Z,11.47
2023-03-18T01:11:33.469Z,11.35
2023-03-18T01:14:02.281Z,11.38
2023-03-18T01:16:31.306Z,11.33
2023-03-18T01:19:01.484Z,11.47
2023-03-18T01:21:29.530Z,11.38
2023-03-18T01:23:57.957Z,11.41
2023-03-18T01:26:26.809Z,11.37
2023-03-18T01:28:54.965Z,11.22
2023-03-18T01:31:24.340Z,11.17
2023-03-18T01:33:53.054Z,11.29
2023-03-18T01:36:23.302Z,11.20
2023-03-18T01:38:51.542Z,11.12
2023-03-18T01:41:20.495Z,11.14
2023-03-18T01:43:48.631Z,11.09
2023-03-18T01:46:35.695Z,11.05
2023-03-18T01:49:08.143Z,11.28
2023-03-18T01:51:38.919Z,11.28
2023-03-18T01:54:09.163Z,11.21
2023-03-18T01:56:40.380Z,11.15
2023-03-18T01:59:10.612Z,11.24
2023-03-18T02:01:45.164Z,11.24
2023-03-18T02:06:43.267Z,11.16
2023-03-18T02:09:13.084Z,11.15
2023-03-18T02:11:44.997Z,11.05
2023-03-18T02:14:16.262Z,10.92
2023-03-18T02:16:48.841Z,11.07
2023-03-18T02:19:30.304Z,11.13
2023-03-18T02:22:19.173Z,11.17
2023-03-18T02:24:54.535Z,11.02
2023-03-18T02:27:26.681Z,10.91
2023-03-18T02:29:58.284Z,10.98
2023-03-18T02:32:29.781Z,11.07
2023-03-18T02:35:01.441Z,11.14
2023-03-18T02:37:29.658Z,11.08
2023-03-18T02:40:12.665Z,11.23
2023-03-18T02:42:42.316Z,11.27
2023-03-18T02:45:20.676Z,11.25
2023-03-18T02:47:50.295Z,11.25
2023-03-18T02:50:20.590Z,11.30
2023-03-18T02:52:50.997Z,11.29
2023-03-18T02:55:19.249Z,11.19
2023-03-18T02:57:49.473Z,11.18
2023-03-18T03:00:18.565Z,11.25
2023-03-18T03:02:46.763Z,11.28
2023-03-18T03:05:15.502Z,11.22
2023-03-18T03:07:43.954Z,11.27
2023-03-18T03:10:13.276Z,11.18
2023-03-18T03:12:41.792Z,11.11
2023-03-18T03:15:12.762Z,11.16
2023-03-18T03:17:41.760Z,11.22
2023-03-18T03:20:11.317Z,11.26
2023-03-18T03:22:39.803Z,11.17
2023-03-18T03:25:09.865Z,11.02
2023-03-18T03:27:39.012Z,11.13
2023-03-18T03:30:09.809Z,11.19
2023-03-18T03:32:40.049Z,11.28
2023-03-18T03:35:09.491Z,11.18
2023-03-18T03:37:37.778Z,11.19
2023-03-18T03:40:08.601Z,11.09
2023-03-18T03:42:37.128Z,10.92
2023-03-18T03:45:08.001Z,10.93
2023-03-18T03:47:38.292Z,10.92
2023-03-18T03:50:07.231Z,10.90
2023-03-18T03:52:35.612Z,10.74
2023-03-18T03:55:04.257Z,10.67
2023-03-18T03:57:32.645Z,10.67
2023-03-18T04:00:01.964Z,10.71
2023-03-18T04:02:30.317Z,10.71
2023-03-18T04:05:00.402Z,10.78
2023-03-18T04:07:29.304Z,10.82
2023-03-18T04:09:57.378Z,10.81
2023-03-18T04:12:25.759Z,10.79
2023-03-18T04:14:54.159Z,10.65
2023-03-18T04:17:25.676Z,10.71
2023-03-18T04:19:53.806Z,10.73
2023-03-18T04:22:24.170Z,10.81
2023-03-18T04:24:52.937Z,10.68
2023-03-18T04:27:22.684Z,10.71
2023-03-18T04:29:51.234Z,10.91
2023-03-18T04:32:19.370Z,10.76
2023-03-18T04:34:47.666Z,10.73
2023-03-18T04:37:20.075Z,10.60
2023-03-18T04:39:50.060Z,10.69
2023-03-18T04:42:18.813Z,10.63
2023-03-18T04:44:47.137Z,10.50
2023-03-18T04:47:15.507Z,10.51
2023-03-18T04:49:44.026Z,10.54
2023-03-18T04:52:13.179Z,10.48
2023-03-18T04:54:43.114Z,10.38
2023-03-18T04:57:13.242Z,10.39
2023-03-18T04:59:42.319Z,10.44
2023-03-18T05:02:10.950Z,10.58
2023-03-18T05:04:39.447Z,10.52
2023-03-18T05:07:07.779Z,10.67
2023-03-18T05:09:36.403Z,10.69
2023-03-18T05:12:04.698Z,10.82
2023-03-18T05:14:34.683Z,10.99
2023-03-18T05:17:04.522Z,11.00
2023-03-18T05:19:33.619Z,11.02
2023-03-18T05:22:01.844Z,10.86
2023-03-18T05:24:35.197Z,10.80
2023-03-18T05:27:03.418Z,10.75
2023-03-18T05:29:33.428Z,10.76
2023-03-18T05:32:01.636Z,10.80
2023-03-18T05:34:29.929Z,10.78
2023-03-18T05:37:00.877Z,10.78
2023-03-18T05:39:29.370Z,10.62
2023-03-18T05:41:58.281Z,10.73
2023-03-18T05:44:27.305Z,10.53
2023-03-18T05:46:57.902Z,10.39
2023-03-18T05:49:27.416Z,10.30
2023-03-18T05:51:56.526Z,10.36
2023-03-18T05:54:26.003Z,10.39
2023-03-18T05:56:56.320Z,10.44
2023-03-18T05:59:27.707Z,10.48
2023-03-18T06:01:57.915Z,10.64
2023-03-18T06:04:27.254Z,10.62
2023-03-18T06:06:55.684Z,10.79
2023-03-18T06:09:24.080Z,10.48
2023-03-18T06:11:52.233Z,10.43
2023-03-18T06:14:20.685Z,10.44
2023-03-18T06:16:49.575Z,10.46
2023-03-18T06:19:19.566Z,10.47
2023-03-18T06:21:47.685Z,10.50
2023-03-18T06:24:16.297Z,10.51
2023-03-18T06:26:44.848Z,10.47
2023-03-18T06:29:13.180Z,10.60
2023-03-18T06:31:41.473Z,10.53
2023-03-18T06:34:09.541Z,10.58
2023-03-18T06:36:39.513Z,10.40
2023-03-18T06:39:08.364Z,10.50
2023-03-18T06:41:36.413Z,10.39
2023-03-18T06:44:05.258Z,10.49
2023-03-18T06:46:33.913Z,10.41
2023-03-18T06:49:02.399Z,10.38
2023-03-18T06:51:30.463Z,10.47
2023-03-18T06:54:00.503Z,10.68
2023-03-18T06:56:28.728Z,10.53
2023-03-18T06:58:58.284Z,10.65
2023-03-18T07:01:27.123Z,10.74
2023-03-18T07:03:55.729Z,10.78
2023-03-18T07:06:24.423Z,10.74
2023-03-18T07:08:53.150Z,10.71
2023-03-18T07:11:23.280Z,10.66
2023-03-18T07:13:51.724Z,10.70
2023-03-18T07:16:20.594Z,10.65
2023-03-18T07:18:48.865Z,10.68
2023-03-18T07:21:17.902Z,10.74
2023-03-18T07:23:46.500Z,10.70
2023-03-18T07:26:14.734Z,10.65
2023-03-18T07:28:44.285Z,10.70
2023-03-18T07:31:13.097Z,10.70
2023-03-18T07:33:41.550Z,10.69
2023-03-18T07:36:10.794Z,10.69
2023-03-18T07:38:40.207Z,10.74
2023-03-18T07:41:08.468Z,10.76
2023-03-18T07:43:37.560Z,10.75
2023-03-18T07:46:07.505Z,10.70
2023-03-18T07:48:38.405Z,10.74
2023-03-18T07:51:07.058Z,10.68
2023-03-18T07:53:38.601Z,10.77
2023-03-18T07:56:08.052Z,10.81
2023-03-18T07:58:36.405Z,10.84
2023-03-18T08:01:04.682Z,10.89
2023-03-18T08:03:34.956Z,11.09
2023-03-18T08:06:03.533Z,11.16
2023-03-18T08:08:32.205Z,11.21
2023-03-18T08:11:02.534Z,11.35
2023-03-18T08:13:30.627Z,11.30
2023-03-18T08:15:59.107Z,11.21
2023-03-18T08:18:27.354Z,11.05
2023-03-18T08:20:57.855Z,11.26
2023-03-18T08:23:26.413Z,11.21
2023-03-18T08:25:54.929Z,11.23
2023-03-18T08:28:23.896Z,11.39
2023-03-18T08:30:57.226Z,11.56
2023-03-18T08:33:26.835Z,11.47
2023-03-18T08:35:58.097Z,11.64
2023-03-18T08:38:29.220Z,11.63
2023-03-18T08:41:02.191Z,11.53
2023-03-18T08:43:30.924Z,11.57
2023-03-18T08:45:59.265Z,11.48
2023-03-18T08:48:30.816Z,11.56
2023-03-18T08:51:01.727Z,11.60
2023-03-18T08:53:30.001Z,11.59
2023-03-18T08:58:51.960Z,11.65
2023-03-18T09:01:22.148Z,11.86
2023-03-18T09:03:51.016Z,11.74
2023-03-18T09:06:24.046Z,11.78
2023-03-18T09:08:52.357Z,11.72
2023-03-18T09:11:20.611Z,11.72
2023-03-18T09:13:49.589Z,11.66
2023-03-18T09:16:18.576Z,11.76
2023-03-18T09:18:58.339Z,11.79
2023-03-18T09:21:32.086Z,11.45
2023-03-18T09:24:10.678Z,11.74
2023-03-18T09:26:39.481Z,11.74
2023-03-18T09:29:07.708Z,11.65
2023-03-18T09:31:39.214Z,11.88
2023-03-18T09:34:07.298Z,11.90
2023-03-18T09:36:36.846Z,12.03
2023-03-18T09:39:09.881Z,12.17
2023-03-18T09:41:48.398Z,12.22
2023-03-18T09:44:24.427Z,12.16
2023-03-18T09:47:18.785Z,12.19
2023-03-18T09:50:14.107Z,12.21
2023-03-18T09:52:54.158Z,12.22
2023-03-18T09:55:30.655Z,12.07
2023-03-18T09:58:03.261Z,12.14
2023-03-18T10:00:35.272Z,12.12
2023-03-18T10:03:10.144Z,12.12
2023-03-18T10:05:52.252Z,12.16
2023-03-18T10:08:36.260Z,12.12
2023-03-18T10:11:22.463Z,11.97
2023-03-18T10:14:06.965Z,11.90
2023-03-18T10:16:48.812Z,12.08
2023-03-18T10:19:20.011Z,11.99
2023-03-18T10:21:54.819Z,12.05
2023-03-18T10:24:34.096Z,12.07
2023-03-18T10:27:10.713Z,12.20
2023-03-18T10:29:43.861Z,12.03
2023-03-18T10:32:23.373Z,12.06
2023-03-18T10:35:02.460Z,11.91
2023-03-18T10:37:43.986Z,11.83
2023-03-18T10:40:17.829Z,11.88
2023-03-18T10:42:46.991Z,11.71
2023-03-18T10:45:24.431Z,11.90
2023-03-18T10:48:00.967Z,12.05
2023-03-18T10:50:35.159Z,12.21
2023-03-18T10:53:13.654Z,12.20
2023-03-18T10:55:52.022Z,12.27
2023-03-18T10:58:20.949Z,12.21
2023-03-18T11:00:50.178Z,12.32
2023-03-18T11:03:27.976Z,12.28
2023-03-18T11:05:59.075Z,12.12
2023-03-18T11:08:34.744Z,12.19
2023-03-18T11:11:27.085Z,12.36
2023-03-18T11:13:57.175Z,12.24
2023-03-18T11:16:30.904Z,12.47
2023-03-18T11:18:59.912Z,12.24
2023-03-18T11:21:31.642Z,12.46
2023-03-18T11:24:21.104Z,12.51
2023-03-18T11:26:56.949Z,12.44
2023-03-18T11:29:29.650Z,12.54
2023-03-18T11:31:59.331Z,12.66
2023-03-18T11:34:29.385Z,12.78
2023-03-18T11:37:04.813Z,12.82
2023-03-18T11:39:37.667Z,12.98
2023-03-18T11:42:20.352Z,13.12
2023-03-18T11:44:57.595Z,13.07
2023-03-18T11:47:30.454Z,12.98
2023-03-18T11:49:58.887Z,12.99
2023-03-18T11:52:37.121Z,12.97
2023-03-18T11:55:26.552Z,12.49
2023-03-18T11:58:38.738Z,12.34
2023-03-18T12:01:14.894Z,12.75
2023-03-18T12:04:24.653Z,12.74
2023-03-18T12:07:09.041Z,12.45
2023-03-18T12:09:43.200Z,12.49
2023-03-18T12:12:30.623Z,12.59
2023-03-18T12:15:06.873Z,12.50
2023-03-18T12:17:47.528Z,12.72
2023-03-18T12:20:50.192Z,12.69
2023-03-18T12:23:33.704Z,12.84
2023-03-18T12:26:06.772Z,12.98
2023-03-18T12:28:48.610Z,13.08
2023-03-18T12:31:55.484Z,13.06
2023-03-18T12:34:44.645Z,13.12
2023-03-18T12:37:32.435Z,13.01
2023-03-18T12:40:13.784Z,12.91
2023-03-18T12:42:57.110Z,12.80
2023-03-18T12:45:28.710Z,12.96
2023-03-18T12:48:02.564Z,12.97
2023-03-18T12:50:38.276Z,13.02
2023-03-18T12:53:16.869Z,13.08
2023-03-18T12:55:47.248Z,13.06
2023-03-18T12:58:19.312Z,13.10
2023-03-18T13:00:56.146Z,13.19
2023-03-18T13:03:33.966Z,13.17
2023-03-18T13:06:10.214Z,13.15
2023-03-18T13:08:54.259Z,13.23
2023-03-18T13:11:36.165Z,13.05
2023-03-18T13:14:08.564Z,13.02
2023-03-18T13:16:39.126Z,12.95
2023-03-18T13:19:07.713Z,13.05
2023-03-18T13:22:04.074Z,13.11
2023-03-18T13:25:06.776Z,13.29
2023-03-18T13:27:55.424Z,13.19
2023-03-18T13:30:33.479Z,12.92
2023-03-18T13:33:20.990Z,13.07
2023-03-18T13:36:07.317Z,13.17
2023-03-18T13:39:10.247Z,13.31
2023-03-18T13:41:54.747Z,13.47
2023-03-18T13:44:41.330Z,13.49
2023-03-18T13:51:08.267Z,13.57
2023-03-18T13:53:51.044Z,13.62
2023-03-18T13:57:02.843Z,13.40
2023-03-18T14:00:24.131Z,12.98
2023-03-18T14:03:17.406Z,13.89
2023-03-18T14:05:49.068Z,13.82
2023-03-18T14:08:49.438Z,13.91
2023-03-18T14:11:52.381Z,13.63
2023-03-18T14:15:09.464Z,13.29
2023-03-18T14:17:49.333Z,12.83
2023-03-18T14:20:29.704Z,12.48
2023-03-18T14:23:37.176Z,12.39
2023-03-18T14:26:09.807Z,12.23
2023-03-18T14:28:46.634Z,12.27
2023-03-18T14:31:27.745Z,12.40
2023-03-18T14:34:04.600Z,12.45
2023-03-18T14:37:19.434Z,12.16
2023-03-18T14:39:51.659Z,12.04
2023-03-18T14:42:33.104Z,12.12
2023-03-18T14:45:06.775Z,12.00
2023-03-18T14:47:44.644Z,12.24
2023-03-18T14:50:23.364Z,12.36
2023-03-18T14:52:56.024Z,12.55
2023-03-18T14:55:28.295Z,12.37
2023-03-18T14:57:56.885Z,12.27
2023-03-18T15:00:26.160Z,12.53
2023-03-18T15:03:01.822Z,12.47
2023-03-18T15:05:36.371Z,12.21
2023-03-18T15:08:10.902Z,12.53
2023-03-18T15:10:40.293Z,12.54
2023-03-18T15:13:13.910Z,12.48
2023-03-18T15:15:43.137Z,12.59
2023-03-18T15:18:26.740Z,12.50
2023-03-18T15:21:01.336Z,12.47
2023-03-18T15:23:33.779Z,12.59
2023-03-18T15:26:04.134Z,12.65
2023-03-18T15:28:33.853Z,12.64
2023-03-18T15:31:05.850Z,12.56
2023-03-18T15:33:38.344Z,12.64
2023-03-18T15:36:15.140Z,12.45
2023-03-18T15:38:48.194Z,12.12
2023-03-18T15:41:18.079Z,11.89
2023-03-18T15:43:47.668Z,12.10
2023-03-18T15:46:19.462Z,12.29
2023-03-18T15:48:54.945Z,12.28
2023-03-18T15:51:31.423Z,12.56
2023-03-18T15:54:06.958Z,12.51
2023-03-18T15:56:36.835Z,12.69
2023-03-18T15:59:14.496Z,12.82
2023-03-18T16:01:44.210Z,12.95
2023-03-18T16:04:16.447Z,12.94
2023-03-18T16:06:46.850Z,12.91
2023-03-18T16:09:17.326Z,12.86
2023-03-18T16:11:49.179Z,12.66
2023-03-18T16:14:19.786Z,12.64
2023-03-18T16:16:48.801Z,12.40
2023-03-18T16:19:19.565Z,12.48
2023-03-18T16:21:49.347Z,12.53
2023-03-18T16:24:17.553Z,12.61
2023-03-18T16:26:47.068Z,12.63
2023-03-18T16:29:17.328Z,12.40
2023-03-18T16:31:46.349Z,12.31
2023-03-18T16:34:21.850Z,12.44
2023-03-18T16:36:53.607Z,12.56
2023-03-18T16:39:27.278Z,12.70
2023-03-18T16:41:58.548Z,12.59
2023-03-18T16:44:27.931Z,12.40
2023-03-18T16:46:58.609Z,12.24
2023-03-18T16:49:31.112Z,12.34
2023-03-18T16:52:02.002Z,12.47
2023-03-18T16:54:33.081Z,12.32
2023-03-18T16:57:03.558Z,12.31
2023-03-18T16:59:35.532Z,12.49
2023-03-18T17:02:04.369Z,12.53
2023-03-18T17:04:34.482Z,12.49
2023-03-18T17:07:06.105Z,12.31
2023-03-18T17:09:34.546Z,12.39
2023-03-18T17:12:05.781Z,12.38
2023-03-18T17:14:37.995Z,12.36
2023-03-18T17:17:08.940Z,12.37
2023-03-18T17:19:37.097Z,12.19
2023-03-18T17:22:20.940Z,12.31
2023-03-18T17:24:49.906Z,12.22
2023-03-18T17:27:22.188Z,12.04
2023-03-18T17:29:50.742Z,11.94
2023-03-18T17:32:19.794Z,11.89
2023-03-18T17:34:50.378Z,12.00
2023-03-18T17:37:20.940Z,11.92
2023-03-18T17:39:49.736Z,11.91
2023-03-18T17:42:29.793Z,11.91
2023-03-18T17:45:03.460Z,11.61
2023-03-18T17:47:31.896Z,11.71
2023-03-18T17:50:00.719Z,11.78
2023-03-18T17:52:30.658Z,11.83
2023-03-18T17:54:59.096Z,11.81
2023-03-18T17:57:27.362Z,11.82
2023-03-18T17:59:55.723Z,11.58
2023-03-18T18:02:25.580Z,11.57
2023-03-18T18:04:54.058Z,11.43
2023-03-18T18:07:23.972Z,11.62
2023-03-18T18:09:58.236Z,11.50
2023-03-18T18:12:26.884Z,11.45
2023-03-18T18:14:55.588Z,11.56
2023-03-18T18:17:24.368Z,11.72
2023-03-18T18:19:54.740Z,11.63
2023-03-18T18:22:26.766Z,11.51
2023-03-18T18:24:58.007Z,11.27
2023-03-18T18:27:26.796Z,11.69
2023-03-18T18:29:55.103Z,11.69
2023-03-18T18:32:24.932Z,11.80
2023-03-18T18:34:54.953Z,11.60
2023-03-18T18:37:26.804Z,11.68
2023-03-18T18:39:59.227Z,11.61
2023-03-18T18:42:27.870Z,11.43
2023-03-18T18:44:56.622Z,11.28
2023-03-18T18:47:27.395Z,11.39
2023-03-18T18:50:01.236Z,11.31
2023-03-18T18:52:30.849Z,11.31
2023-03-18T18:55:00.633Z,11.41
2023-03-18T18:57:31.192Z,11.30
2023-03-18T18:59:59.312Z,11.13
2023-03-18T19:02:31.796Z,10.96
2023-03-18T19:05:01.113Z,11.13
2023-03-18T19:07:30.378Z,11.24
2023-03-18T19:10:00.682Z,11.32
2023-03-18T19:12:29.161Z,11.35
2023-03-18T19:14:57.332Z,11.37
2023-03-18T19:17:26.506Z,11.31
2023-03-18T19:19:56.961Z,11.32
2023-03-18T19:22:26.626Z,11.35
2023-03-18T19:24:55.588Z,11.20
2023-03-18T19:27:28.242Z,11.17
2023-03-18T19:29:58.644Z,11.26
2023-03-18T19:32:27.942Z,11.41
2023-03-18T19:34:56.754Z,11.37
2023-03-18T19:37:29.240Z,11.61
2023-03-18T19:39:58.616Z,11.58
2023-03-18T19:42:28.675Z,11.55
2023-03-18T19:44:57.384Z,11.50
2023-03-18T19:47:32.342Z,11.43
2023-03-18T19:50:01.391Z,11.34
2023-03-18T19:52:30.688Z,11.30
2023-03-18T19:54:59.326Z,11.28
2023-03-18T19:57:32.853Z,11.13
2023-03-18T20:00:05.130Z,11.47
2023-03-18T20:02:35.110Z,11.54
2023-03-18T20:05:06.645Z,11.61
2023-03-18T20:07:34.903Z,11.64
2023-03-18T20:10:03.452Z,11.71
2023-03-18T20:12:36.410Z,11.81
2023-03-18T20:15:05.766Z,11.62
2023-03-18T20:17:39.295Z,11.65
2023-03-18T20:20:10.121Z,11.64
2023-03-18T20:22:42.569Z,11.76
2023-03-18T20:25:19.391Z,11.67
2023-03-18T20:27:50.812Z,11.78
2023-03-18T20:30:30.423Z,11.88
2023-03-18T20:33:00.350Z,11.87
2023-03-18T20:35:30.966Z,11.84
2023-03-18T20:38:02.238Z,11.80
2023-03-18T20:40:32.230Z,11.65
2023-03-18T20:43:02.481Z,11.58
2023-03-18T20:45:31.035Z,11.38
2023-03-18T20:47:59.428Z,11.39
2023-03-18T20:50:30.143Z,11.38
2023-03-18T20:52:59.140Z,11.27
2023-03-18T20:55:31.357Z,11.36
2023-03-18T20:58:02.428Z,11.33
2023-03-18T21:00:33.216Z,11.40
2023-03-18T21:03:03.760Z,11.45
2023-03-18T21:05:32.096Z,11.57
2023-03-18T21:08:00.448Z,11.54
2023-03-18T21:10:29.227Z,11.52
2023-03-18T21:12:57.803Z,11.42
2023-03-18T21:15:28.976Z,11.22
2023-03-18T21:17:57.200Z,11.29
2023-03-18T21:20:31.067Z,11.24
2023-03-18T21:22:59.437Z,11.55
2023-03-18T21:25:29.233Z,11.54
2023-03-18T21:27:57.890Z,11.39
2023-03-18T21:30:27.893Z,11.41
2023-03-18T21:32:56.619Z,11.43
2023-03-18T21:35:26.846Z,11.36
2023-03-18T21:37:55.533Z,11.59
2023-03-18T21:40:26.579Z,11.52
2023-03-18T21:42:54.995Z,11.45
2023-03-18T21:45:24.909Z,11.36
2023-03-18T21:47:54.412Z,11.40
2023-03-18T21:50:28.244Z,11.42
2023-03-18T21:52:59.272Z,11.36
2023-03-18T21:55:27.408Z,11.41
2023-03-18T21:57:56.243Z,11.53
2023-03-18T22:00:24.800Z,11.42
2023-03-18T22:02:54.903Z,11.36
2023-03-18T22:05:25.598Z,11.07
2023-03-18T22:07:54.057Z,11.35
2023-03-18T22:10:24.384Z,11.40
2023-03-18T22:12:52.868Z,11.37
2023-03-18T22:15:35.977Z,11.52
2023-03-18T22:18:07.417Z,11.59
2023-03-18T22:20:36.668Z,11.75
2023-03-18T22:23:20.152Z,11.64
2023-03-18T22:25:49.889Z,11.62
2023-03-18T22:28:18.782Z,11.58
2023-03-18T22:30:52.189Z,11.71
2023-03-18T22:33:25.934Z,11.52
2023-03-18T22:35:54.781Z,11.46
2023-03-18T22:38:24.657Z,11.56
2023-03-18T22:40:55.832Z,11.49
2023-03-18T22:43:30.509Z,11.61
2023-03-18T22:45:59.367Z,11.61
2023-03-18T22:48:29.822Z,11.60
2023-03-18T22:51:01.418Z,11.75
2023-03-18T22:53:31.902Z,11.67
2023-03-18T22:56:02.769Z,12.13
2023-03-18T22:58:31.020Z,12.29
2023-03-18T23:00:59.582Z,12.27
2023-03-18T23:03:31.868Z,12.54
2023-03-18T23:06:01.994Z,12.60
2023-03-18T23:08:31.304Z,12.56
2023-03-18T23:11:02.987Z,12.57
2023-03-18T23:13:34.538Z,12.61
2023-03-18T23:16:04.464Z,12.67
2023-03-18T23:18:34.357Z,12.51
2023-03-18T23:21:02.803Z,12.48
2023-03-18T23:23:31.895Z,12.09
2023-03-18T23:26:00.111Z,11.72
2023-03-18T23:28:28.851Z,11.59
2023-03-18T23:30:57.279Z,11.53
2023-03-18T23:33:25.595Z,11.51
2023-03-18T23:35:55.529Z,11.46
2023-03-18T23:38:23.903Z,11.26
2023-03-18T23:40:52.414Z,11.35
2023-03-18T23:43:22.332Z,11.70
2023-03-18T23:45:51.257Z,11.84
2023-03-18T23:48:19.414Z,11.82
2023-03-18T23:50:47.782Z,11.77
2023-03-18T23:53:17.809Z,11.95
2023-03-18T23:55:46.367Z,11.64
2023-03-18T23:58:14.733Z,11.76
